Time;durP1;ratioP1;P1;durP2;ratioP2;P2;SDS_P1;SDS_P2;PMS_P1;PMS_P2;Temp;Humidity;BMP_temperature;BMP_pressure;BME280_temperature;BME280_humidity;BME280_pressure;Samples;Min_cycle;Max_cycle;Signal;HPM_P1;HPM_P2
2021/01/05 00:02:13;;;;;;;8.50;5.10;;;3.30;88.40;;;;;;4419617;32;20219;-63
2021/01/05 00:04:45;;;;;;;6.70;5.67;;;3.30;88.40;;;;;;4411202;32;20163;-65
2021/01/05 00:07:21;;;;;;;7.13;5.47;;;3.30;87.70;;;;;;4420207;32;20178;-66
2021/01/05 00:09:57;;;;;;;6.10;5.50;;;3.30;87.90;;;;;;4413566;32;20158;-64
2021/01/05 00:12:37;;;;;;;6.60;5.47;;;3.30;88.20;;;;;;4403271;32;20213;-63
2021/01/05 00:15:09;;;;;;;9.57;6.17;;;3.30;87.60;;;;;;4417354;32;20167;-64
2021/01/05 00:17:38;;;;;;;7.77;5.67;;;3.30;87.60;;;;;;4416360;32;20189;-63
2021/01/05 00:20:10;;;;;;;8.17;5.60;;;3.30;88.30;;;;;;4418970;32;20227;-62
2021/01/05 00:22:39;;;;;;;7.87;5.53;;;3.30;87.50;;;;;;4417256;32;20163;-65
2021/01/05 00:25:10;;;;;;;7.63;5.40;;;3.40;87.40;;;;;;4419513;32;20183;-61
2021/01/05 00:27:38;;;;;;;8.23;6.00;;;3.30;87.60;;;;;;4419565;32;20531;-65
2021/01/05 00:30:21;;;;;;;8.00;5.47;;;3.30;87.30;;;;;;4417259;32;20648;-63
2021/01/05 00:32:50;;;;;;;8.17;6.17;;;3.30;87.70;;;;;;4421576;32;20628;-66
2021/01/05 00:35:20;;;;;;;10.03;5.63;;;3.20;87.40;;;;;;4421182;32;20514;-64
2021/01/05 00:37:47;;;;;;;7.30;5.47;;;3.30;87.40;;;;;;4420880;32;20498;-63
2021/01/05 00:40:14;;;;;;;7.40;5.80;;;3.20;87.60;;;;;;4417635;32;20310;-64
2021/01/05 00:42:52;;;;;;;8.40;6.23;;;3.30;87.50;;;;;;4419317;32;20199;-63
2021/01/05 00:45:29;;;;;;;7.90;5.80;;;3.30;87.40;;;;;;4413682;32;20223;-61
2021/01/05 00:47:56;;;;;;;6.87;5.80;;;3.40;87.40;;;;;;4421255;32;20643;-61
2021/01/05 00:50:24;;;;;;;7.97;6.50;;;3.40;87.60;;;;;;4419797;32;20216;-62
2021/01/05 00:52:59;;;;;;;8.73;6.33;;;3.40;87.30;;;;;;4414115;32;20168;-67
2021/01/05 00:55:30;;;;;;;8.43;6.23;;;3.40;87.20;;;;;;4417173;32;20167;-62
2021/01/05 00:58:01;;;;;;;6.10;5.10;;;3.40;87.30;;;;;;4416897;32;20198;-61
2021/01/05 01:00:28;;;;;;;6.63;5.77;;;3.30;87.10;;;;;;4418134;32;20168;-67
2021/01/05 01:02:58;;;;;;;6.93;5.63;;;3.30;87.60;;;;;;4418540;32;20205;-65
2021/01/05 01:05:27;;;;;;;7.97;7.07;;;3.30;87.70;;;;;;4419776;32;20222;-62
2021/01/05 01:07:59;;;;;;;7.27;5.90;;;3.30;87.50;;;;;;4417403;32;20238;-64
2021/01/05 01:10:30;;;;;;;7.80;5.97;;;3.40;87.60;;;;;;4417853;32;20176;-62
2021/01/05 01:12:58;;;;;;;7.77;5.87;;;3.40;87.60;;;;;;4416381;32;20584;-63
2021/01/05 01:15:29;;;;;;;8.47;6.37;;;3.40;87.40;;;;;;4417944;32;20164;-62
2021/01/05 01:17:58;;;;;;;7.67;5.60;;;3.40;87.90;;;;;;4417137;32;20186;-61
2021/01/05 01:20:27;;;;;;;6.40;5.33;;;3.40;87.30;;;;;;4418711;32;20216;-61
2021/01/05 01:22:53;;;;;;;7.00;6.00;;;3.40;87.60;;;;;;4418449;32;20218;-62
2021/01/05 01:25:22;;;;;;;9.17;6.50;;;3.30;87.90;;;;;;4418524;32;20295;-63
2021/01/05 01:27:51;;;;;;;8.10;5.93;;;3.40;87.80;;;;;;4416284;32;20162;-66
2021/01/05 01:30:24;;;;;;;7.23;5.80;;;3.40;87.60;;;;;;4417879;32;20221;-64
2021/01/05 01:32:54;;;;;;;11.50;6.10;;;3.40;87.80;;;;;;4418343;32;20243;-62
2021/01/05 01:35:25;;;;;;;6.83;5.67;;;3.40;87.90;;;;;;4417458;32;20170;-62
2021/01/05 01:37:51;;;;;;;8.83;6.37;;;3.40;88.10;;;;;;4416477;32;20259;-62
2021/01/05 01:40:34;;;;;;;8.33;6.50;;;3.30;88.10;;;;;;4418036;32;20179;-63
2021/01/05 01:43:05;;;;;;;7.27;5.70;;;3.30;88.30;;;;;;4414795;32;20155;-63
2021/01/05 01:45:37;;;;;;;7.73;6.13;;;3.30;88.30;;;;;;4417606;32;20167;-62
2021/01/05 01:48:13;;;;;;;7.50;5.47;;;3.30;88.50;;;;;;4414827;32;20214;-63
2021/01/05 01:50:40;;;;;;;10.83;6.50;;;3.30;88.50;;;;;;4417957;32;20163;-63
2021/01/05 01:53:40;;;;;;;8.20;6.70;;;3.20;88.40;;;;;;4418674;32;20227;-62
2021/01/05 01:56:20;;;;;;;8.83;7.10;;;3.20;88.60;;;;;;4417182;32;20385;-62
2021/01/05 01:59:10;;;;;;;9.00;6.07;;;3.20;89.00;;;;;;4416936;32;20151;-63
2021/01/05 02:01:47;;;;;;;10.30;7.03;;;3.20;88.80;;;;;;4415085;32;20237;-62
2021/01/05 02:04:49;;;;;;;8.20;6.50;;;3.20;88.70;;;;;;4415274;32;20271;-63
2021/01/05 02:07:40;;;;;;;8.83;6.43;;;3.20;88.80;;;;;;4370300;32;20197;-61
2021/01/05 02:10:36;;;;;;;7.83;6.27;;;3.20;88.80;;;;;;4367892;32;20176;-62
2021/01/05 02:13:20;;;;;;;9.73;6.67;;;3.20;88.90;;;;;;4298811;33;20332;-61
2021/01/05 02:16:03;;;;;;;10.93;6.43;;;3.20;88.90;;;;;;4306725;33;20181;-62
2021/01/05 02:18:50;;;;;;;8.63;6.83;;;3.20;89.70;;;;;;4306078;33;20606;-63
2021/01/05 02:21:25;;;;;;;9.40;7.03;;;3.20;89.30;;;;;;4304383;33;20284;-62
2021/01/05 02:24:28;;;;;;;9.53;7.30;;;3.20;89.10;;;;;;4303771;33;20169;-62
2021/01/05 02:27:02;;;;;;;7.53;6.40;;;3.20;88.70;;;;;;4307287;33;20187;-62
2021/01/05 02:29:39;;;;;;;9.57;7.10;;;3.20;88.80;;;;;;4307162;33;20265;-63
2021/01/05 02:32:28;;;;;;;8.13;6.50;;;3.20;88.70;;;;;;4300405;33;20170;-63
2021/01/05 02:35:17;;;;;;;9.20;6.57;;;3.20;88.50;;;;;;4306509;33;20290;-62
2021/01/05 02:38:04;;;;;;;10.07;7.27;;;3.20;88.60;;;;;;4303512;33;20265;-63
2021/01/05 02:40:54;;;;;;;9.00;6.30;;;3.20;89.00;;;;;;4306747;33;20611;-62
2021/01/05 02:44:02;;;;;;;9.40;6.67;;;3.10;88.60;;;;;;4316421;33;20187;-62
2021/01/05 02:46:46;;;;;;;8.53;6.63;;;3.10;88.50;;;;;;4354241;33;20188;-62
2021/01/05 02:49:32;;;;;;;8.37;7.03;;;3.10;88.60;;;;;;4356894;32;20159;-62
2021/01/05 02:52:44;;;;;;;8.20;6.43;;;3.10;88.60;;;;;;4403751;32;20218;-62
2021/01/05 02:56:01;;;;;;;11.03;7.37;;;3.10;88.80;;;;;;4405393;32;20573;-62
2021/01/05 02:58:58;;;;;;;9.60;6.93;;;3.10;88.80;;;;;;4369369;32;20175;-62
2021/01/05 03:02:11;;;;;;;10.10;6.80;;;3.10;88.50;;;;;;4368831;32;20206;-62
2021/01/05 03:04:40;;;;;;;9.03;6.57;;;3.20;88.10;;;;;;4370903;32;20167;-62
2021/01/05 03:07:14;;;;;;;11.27;6.70;;;3.20;87.20;;;;;;4372824;32;20160;-62
2021/01/05 03:10:02;;;;;;;8.97;6.77;;;3.20;87.70;;;;;;4373483;32;20182;-62
2021/01/05 03:12:54;;;;;;;8.97;6.70;;;3.20;88.00;;;;;;4372318;32;20653;-62
2021/01/05 03:15:36;;;;;;;9.47;6.90;;;3.20;87.60;;;;;;4370857;32;20156;-62
2021/01/05 03:18:15;;;;;;;8.00;6.03;;;3.20;87.50;;;;;;4370815;32;20182;-62
2021/01/05 03:20:48;;;;;;;11.37;7.10;;;3.20;87.80;;;;;;4372282;32;20187;-62
2021/01/05 03:23:19;;;;;;;9.23;6.93;;;3.20;88.00;;;;;;4371190;32;20314;-62
2021/01/05 03:25:55;;;;;;;9.83;7.40;;;3.20;87.70;;;;;;4372623;32;20286;-62
2021/01/05 03:28:28;;;;;;;11.27;7.57;;;3.30;87.60;;;;;;4371200;32;20646;-61
2021/01/05 03:31:02;;;;;;;9.20;7.10;;;3.20;88.10;;;;;;4372909;32;20388;-63
2021/01/05 03:33:29;;;;;;;8.87;7.23;;;3.20;88.20;;;;;;4403212;32;20174;-62
2021/01/05 03:36:03;;;;;;;9.53;6.73;;;3.20;88.00;;;;;;4403153;32;20177;-62
2021/01/05 03:38:43;;;;;;;10.27;7.83;;;3.30;88.40;;;;;;4404136;32;20160;-62
2021/01/05 03:41:12;;;;;;;9.20;7.00;;;3.30;88.50;;;;;;4403854;32;20640;-62
2021/01/05 03:43:39;;;;;;;10.17;7.83;;;3.20;88.40;;;;;;4404349;32;20156;-62
2021/01/05 03:46:13;;;;;;;10.17;7.50;;;3.20;89.00;;;;;;4403962;32;20199;-62
2021/01/05 03:48:42;;;;;;;9.73;7.93;;;3.20;88.90;;;;;;4403045;32;20163;-61
2021/01/05 03:51:08;;;;;;;9.63;8.27;;;3.20;88.90;;;;;;4403883;32;20148;-62
2021/01/05 03:53:37;;;;;;;9.13;7.00;;;3.10;88.90;;;;;;4405211;32;20219;-62
2021/01/05 03:56:15;;;;;;;10.60;7.93;;;3.20;89.20;;;;;;4403853;32;20650;-62
2021/01/05 03:58:42;;;;;;;10.80;7.50;;;3.10;89.30;;;;;;4403667;32;20171;-62
2021/01/05 04:01:09;;;;;;;8.20;6.83;;;3.10;89.50;;;;;;4402958;32;20199;-62
2021/01/05 04:03:38;;;;;;;9.57;7.00;;;3.10;89.40;;;;;;4403996;32;20219;-62
2021/01/05 04:06:05;;;;;;;9.40;7.83;;;3.10;89.20;;;;;;4403252;32;20171;-61
2021/01/05 04:08:32;;;;;;;9.80;7.83;;;3.10;89.60;;;;;;4405433;32;20179;-62
2021/01/05 04:11:02;;;;;;;9.20;7.73;;;3.10;89.70;;;;;;4404423;32;20182;-62
2021/01/05 04:13:28;;;;;;;10.00;6.47;;;3.10;89.30;;;;;;4402501;32;20690;-62
2021/01/05 04:15:55;;;;;;;9.73;7.57;;;3.20;89.50;;;;;;4403353;32;20155;-62
2021/01/05 04:18:22;;;;;;;9.13;6.90;;;3.20;89.40;;;;;;4403563;32;20214;-62
2021/01/05 04:20:48;;;;;;;9.40;7.13;;;3.20;89.20;;;;;;4402553;32;20155;-62
2021/01/05 04:23:18;;;;;;;9.60;7.23;;;3.20;89.10;;;;;;4404288;32;20175;-62
2021/01/05 04:25:47;;;;;;;9.77;7.50;;;3.20;89.30;;;;;;4403359;32;20241;-63
2021/01/05 04:28:16;;;;;;;9.87;7.27;;;3.30;89.20;;;;;;4402895;32;20156;-62
2021/01/05 04:30:43;;;;;;;10.80;7.83;;;3.20;88.90;;;;;;4402995;32;20192;-63
2021/01/05 04:33:14;;;;;;;11.13;7.13;;;3.20;88.50;;;;;;4404130;32;20156;-63
2021/01/05 04:35:48;;;;;;;11.97;7.93;;;3.20;88.90;;;;;;4400538;32;20437;-63
2021/01/05 04:38:22;;;;;;;9.43;6.97;;;3.20;88.70;;;;;;4405146;32;20190;-61
2021/01/05 04:40:51;;;;;;;10.87;7.30;;;3.20;88.50;;;;;;4403529;32;20210;-63
2021/01/05 04:43:35;;;;;;;13.40;8.40;;;3.30;88.30;;;;;;4403763;32;20445;-62
2021/01/05 04:46:23;;;;;;;9.40;6.57;;;3.30;88.40;;;;;;4404175;32;20460;-62
2021/01/05 04:49:18;;;;;;;14.60;8.03;;;3.20;88.60;;;;;;4406748;32;20143;-62
2021/01/05 04:54:51;;;;;;;12.67;8.20;;;3.30;88.30;;;;;;4397431;32;20162;-62
2021/01/05 04:57:30;;;;;;;12.93;8.17;;;3.30;88.50;;;;;;4390608;32;20495;-62
2021/01/05 05:00:15;;;;;;;11.70;8.37;;;3.20;88.80;;;;;;4391227;32;20178;-61
2021/01/05 05:02:51;;;;;;;15.10;8.70;;;3.20;88.70;;;;;;4404624;32;20221;-62
2021/01/05 05:05:47;;;;;;;11.77;8.67;;;3.20;88.60;;;;;;4402491;32;20160;-61
2021/01/05 05:08:50;;;;;;;13.87;8.57;;;3.20;88.50;;;;;;4402999;32;20186;-63
2021/01/05 05:11:19;;;;;;;12.97;8.00;;;3.20;88.20;;;;;;4397590;32;20471;-62
2021/01/05 05:14:00;;;;;;;12.30;8.20;;;3.20;88.50;;;;;;4399025;32;20194;-61
2021/01/05 05:16:51;;;;;;;12.07;7.67;;;3.30;88.60;;;;;;4409540;32;20174;-62
2021/01/05 05:19:55;;;;;;;14.97;8.80;;;3.30;88.70;;;;;;4417585;32;20311;-62
2021/01/05 05:22:44;;;;;;;12.20;7.97;;;3.30;88.80;;;;;;4417027;32;20475;-62
2021/01/05 05:25:22;;;;;;;14.17;8.03;;;3.20;88.90;;;;;;4415724;32;20270;-61
2021/01/05 05:28:07;;;;;;;14.30;8.57;;;3.20;89.20;;;;;;4417383;32;20214;-63
2021/01/05 05:30:45;;;;;;;14.80;9.03;;;3.30;89.00;;;;;;4416238;32;20184;-63
2021/01/05 05:33:23;;;;;;;14.67;9.03;;;3.30;89.10;;;;;;4417123;32;20163;-63
2021/01/05 05:36:15;;;;;;;14.47;8.77;;;3.30;89.00;;;;;;4417581;32;20170;-62
2021/01/05 05:39:17;;;;;;;16.43;9.27;;;3.30;89.10;;;;;;4417352;32;20210;-62
2021/01/05 05:41:59;;;;;;;13.93;8.57;;;3.30;89.20;;;;;;4413805;32;20194;-62
2021/01/05 05:44:34;;;;;;;12.67;8.60;;;3.30;89.20;;;;;;4418531;32;20226;-62
2021/01/05 05:47:07;;;;;;;14.13;9.43;;;3.20;89.70;;;;;;4418670;32;20158;-62
2021/01/05 05:49:43;;;;;;;12.93;8.90;;;3.30;89.90;;;;;;4414840;32;20374;-62
2021/01/05 05:52:28;;;;;;;15.07;8.67;;;3.30;89.90;;;;;;4416107;32;20154;-62
2021/01/05 05:55:07;;;;;;;14.80;8.97;;;3.20;90.10;;;;;;4417296;32;20231;-62
2021/01/05 05:57:46;;;;;;;18.60;10.00;;;3.20;90.10;;;;;;4416902;32;20147;-63
2021/01/05 06:00:33;;;;;;;15.47;9.67;;;3.30;90.00;;;;;;4417422;32;20154;-62
2021/01/05 06:03:07;;;;;;;16.37;10.67;;;3.20;90.10;;;;;;4420384;32;20166;-61
2021/01/05 06:05:37;;;;;;;17.43;9.87;;;3.20;90.10;;;;;;4419506;32;20206;-62
2021/01/05 06:08:06;;;;;;;16.07;9.03;;;3.20;90.10;;;;;;4422542;32;20200;-62
2021/01/05 06:10:37;;;;;;;15.97;9.90;;;3.30;90.10;;;;;;4421414;32;20186;-62
2021/01/05 06:13:07;;;;;;;15.17;9.93;;;3.20;90.30;;;;;;4422652;32;20233;-63
2021/01/05 06:15:43;;;;;;;17.90;10.00;;;3.20;90.30;;;;;;4418686;32;20211;-62
2021/01/05 06:18:12;;;;;;;15.73;10.67;;;3.10;90.40;;;;;;4419482;32;20156;-63
2021/01/05 06:20:39;;;;;;;17.87;10.83;;;3.10;90.60;;;;;;4417320;32;20167;-62
2021/01/05 06:23:06;;;;;;;18.43;10.93;;;3.10;90.60;;;;;;4420435;32;20215;-62
2021/01/05 06:25:32;;;;;;;18.40;11.73;;;3.10;90.70;;;;;;4421744;32;20176;-62
2021/01/05 06:27:59;;;;;;;18.47;11.53;;;3.10;90.80;;;;;;4420791;32;20636;-62
2021/01/05 06:30:29;;;;;;;19.70;11.73;;;3.10;90.90;;;;;;4419364;32;20210;-62
2021/01/05 06:32:55;;;;;;;26.10;14.40;;;3.10;90.80;;;;;;4422488;32;20166;-62
2021/01/05 06:35:30;;;;;;;21.63;12.23;;;3.10;90.60;;;;;;4417135;32;20187;-63
2021/01/05 06:37:56;;;;;;;18.00;11.27;;;3.10;90.80;;;;;;4419960;32;20260;-63
2021/01/05 06:40:28;;;;;;;19.03;12.47;;;3.10;90.80;;;;;;4419429;32;20279;-63
2021/01/05 06:42:56;;;;;;;18.60;11.33;;;3.10;90.60;;;;;;4417617;32;20324;-62
2021/01/05 06:45:28;;;;;;;18.43;11.60;;;3.20;90.70;;;;;;4419802;32;20161;-62
2021/01/05 06:47:58;;;;;;;19.63;12.03;;;3.20;90.60;;;;;;4418769;32;20220;-62
2021/01/05 06:50:27;;;;;;;18.57;12.07;;;3.10;90.70;;;;;;4419278;32;20178;-63
2021/01/05 06:52:58;;;;;;;20.27;11.50;;;3.20;90.80;;;;;;4417373;32;20294;-62
2021/01/05 06:55:27;;;;;;;18.87;11.43;;;3.10;90.70;;;;;;4418409;32;20151;-66
2021/01/05 06:57:54;;;;;;;20.13;11.97;;;3.20;90.90;;;;;;4418701;32;20190;-66
2021/01/05 07:00:22;;;;;;;20.37;13.00;;;3.10;90.90;;;;;;4419962;32;20482;-62
2021/01/05 07:02:51;;;;;;;19.03;11.50;;;3.00;91.10;;;;;;4416681;32;20214;-62
2021/01/05 07:05:21;;;;;;;20.53;12.70;;;3.00;91.30;;;;;;4411878;32;20183;-62
2021/01/05 07:07:51;;;;;;;19.53;12.60;;;3.00;91.30;;;;;;4417946;32;20500;-65
2021/01/05 07:10:21;;;;;;;20.93;12.30;;;3.00;91.40;;;;;;4419051;32;20159;-62
2021/01/05 07:12:57;;;;;;;22.47;13.10;;;3.00;91.60;;;;;;4418099;32;20341;-62
2021/01/05 07:15:31;;;;;;;21.40;12.37;;;3.10;91.70;;;;;;4106585;32;10243829;-63
2021/01/05 07:17:59;;;;;;;23.43;12.97;;;3.10;91.50;;;;;;4421972;32;20462;-62
2021/01/05 07:20:26;;;;;;;23.93;13.63;;;3.00;91.80;;;;;;4422262;32;20160;-62
2021/01/05 07:23:10;;;;;;;21.30;11.87;;;3.00;91.70;;;;;;4418973;32;20147;-65
2021/01/05 07:25:39;;;;;;;19.47;11.37;;;3.00;91.60;;;;;;4410278;32;20218;-65
2021/01/05 07:28:09;;;;;;;20.23;11.83;;;3.10;91.60;;;;;;4416898;32;20166;-62
2021/01/05 07:30:41;;;;;;;20.50;12.10;;;3.10;91.50;;;;;;4417873;32;20159;-62
2021/01/05 07:33:08;;;;;;;19.53;11.70;;;3.10;91.60;;;;;;4416171;32;20147;-62
2021/01/05 07:35:43;;;;;;;20.23;12.97;;;3.10;91.50;;;;;;4412110;32;20232;-64
2021/01/05 07:38:22;;;;;;;21.23;12.70;;;3.10;91.60;;;;;;4416657;32;20183;-63
2021/01/05 07:40:48;;;;;;;20.53;12.27;;;3.00;91.60;;;;;;4417288;32;20206;-62
2021/01/05 07:43:45;;;;;;;19.97;12.13;;;3.10;91.60;;;;;;4411744;32;20179;-63
2021/01/05 07:50:14;;;;;;;18.53;12.10;;;3.10;91.50;;;;;;4380974;32;20432;-64
2021/01/05 07:52:46;;;;;;;20.30;12.53;;;3.10;91.50;;;;;;4379949;32;20155;-63
2021/01/05 07:55:19;;;;;;;22.33;14.00;;;3.10;91.50;;;;;;4380133;32;20206;-64
2021/01/05 07:58:02;;;;;;;21.10;12.80;;;3.10;91.60;;;;;;4380649;32;20223;-64
2021/01/05 08:00:33;;;;;;;19.30;12.60;;;3.20;91.60;;;;;;4379960;32;20227;-68
2021/01/05 08:03:14;;;;;;;24.83;14.10;;;3.20;91.50;;;;;;4378859;32;20312;-67
2021/01/05 08:05:43;;;;;;;21.17;13.20;;;3.20;91.30;;;;;;4378728;32;20152;-65
2021/01/05 08:08:22;;;;;;;22.43;13.30;;;3.20;91.20;;;;;;4382484;32;20239;-68
2021/01/05 08:14:32;;;;;;;22.77;13.73;;;3.20;91.40;;;;;;4378746;32;20622;-64
2021/01/05 08:17:02;;;;;;;23.43;13.40;;;3.20;91.10;;;;;;4385928;32;20253;-63
2021/01/05 08:19:41;;;;;;;21.77;13.50;;;3.30;91.20;;;;;;4380751;32;20200;-65
2021/01/05 08:25:02;;;;;;;22.40;13.80;;;3.20;91.20;;;;;;4413315;32;20227;-63
2021/01/05 08:27:30;;;;;;;21.37;13.27;;;3.20;91.00;;;;;;4414183;32;20460;-66
2021/01/05 08:29:57;;;;;;;22.47;13.60;;;3.20;91.00;;;;;;4413094;32;20154;-65
2021/01/05 08:32:29;;;;;;;23.83;13.93;;;3.20;91.10;;;;;;4415794;32;20330;-67
2021/01/05 08:35:07;;;;;;;22.53;13.60;;;3.30;91.30;;;;;;4413874;32;20143;-64
2021/01/05 08:37:38;;;;;;;23.53;14.13;;;3.30;91.00;;;;;;4412891;32;20217;-66
2021/01/05 08:40:11;;;;;;;23.10;14.40;;;3.30;90.90;;;;;;4413538;32;20506;-65
2021/01/05 08:42:43;;;;;;;26.53;14.60;;;3.30;90.90;;;;;;4416677;32;20150;-65
2021/01/05 08:45:16;;;;;;;24.27;14.43;;;3.40;90.90;;;;;;4413166;32;20283;-66
2021/01/05 08:47:45;;;;;;;22.80;14.37;;;3.30;91.10;;;;;;4412615;32;20159;-65
2021/01/05 08:50:28;;;;;;;22.60;14.37;;;3.40;90.90;;;;;;4412053;32;20170;-65
2021/01/05 08:53:07;;;;;;;23.23;14.50;;;3.40;90.90;;;;;;4412813;32;20259;-64
2021/01/05 08:55:38;;;;;;;23.70;15.03;;;3.40;90.90;;;;;;4415597;32;20618;-67
2021/01/05 08:58:08;;;;;;;25.07;14.57;;;3.40;91.00;;;;;;4416329;32;20498;-65
2021/01/05 09:00:39;;;;;;;22.10;14.47;;;3.50;91.10;;;;;;4415760;32;20277;-65
2021/01/05 09:06:11;;;;;;;26.20;15.50;;;3.50;90.70;;;;;;4365510;32;20407;-68
2021/01/05 09:08:52;;;;;;;27.47;16.47;;;3.50;90.60;;;;;;4367378;32;20223;-66
2021/01/05 09:11:55;;;;;;;22.83;14.07;;;3.50;90.60;;;;;;4367840;32;20225;-67
2021/01/05 09:14:27;;;;;;;24.17;14.77;;;3.40;90.70;;;;;;4367875;32;20156;-65
2021/01/05 09:17:23;;;;;;;23.63;14.97;;;3.40;90.70;;;;;;4367209;32;20509;-65
2021/01/05 09:19:55;;;;;;;24.17;14.13;;;3.50;90.90;;;;;;4359160;32;20259;-65
2021/01/05 09:23:04;;;;;;;27.53;16.20;;;3.50;90.80;;;;;;4365004;32;20318;-66
2021/01/05 09:26:01;;;;;;;25.47;15.50;;;3.50;90.90;;;;;;4370106;32;20164;-68
2021/01/05 09:28:51;;;;;;;26.20;15.57;;;3.50;90.70;;;;;;4371989;32;20608;-67
2021/01/05 09:31:52;;;;;;;21.90;13.03;;;3.40;91.10;;;;;;4372238;32;20217;-67
2021/01/05 09:34:31;;;;;;;25.50;15.53;;;3.60;90.70;;;;;;4288183;33;20150;-66
2021/01/05 09:40:15;;;;;;;23.33;15.03;;;3.60;90.70;;;;;;4342152;33;20160;-66
2021/01/05 09:43:01;;;;;;;22.63;13.93;;;3.60;90.60;;;;;;4330259;33;20173;-67
2021/01/05 09:45:28;;;;;;;23.23;14.70;;;3.60;90.70;;;;;;4330636;33;20191;-67
2021/01/05 09:50:51;;;;;;;21.43;13.17;;;3.70;90.50;;;;;;4336356;33;20176;-65
2021/01/05 09:53:35;;;;;;;25.07;15.20;;;3.70;90.50;;;;;;4329939;33;20153;-66
2021/01/05 09:56:18;;;;;;;22.67;13.07;;;3.70;90.60;;;;;;4336475;33;20608;-65
2021/01/05 09:58:50;;;;;;;22.00;13.43;;;3.80;90.30;;;;;;4328356;33;20192;-65
2021/01/05 10:01:37;;;;;;;18.87;11.97;;;3.80;90.20;;;;;;4336904;33;20184;-64
2021/01/05 10:04:23;;;;;;;20.47;12.90;;;3.80;90.10;;;;;;4341047;33;20791;-66
2021/01/05 10:07:24;;;;;;;19.17;11.33;;;3.80;90.10;;;;;;4335482;33;20231;-67
2021/01/05 10:13:03;;;;;;;19.60;11.87;;;3.90;90.00;;;;;;4401008;32;20207;-65
2021/01/05 10:15:31;;;;;;;20.80;11.67;;;3.90;90.00;;;;;;4403747;32;20136;-65
2021/01/05 10:18:31;;;;;;;20.93;11.73;;;3.90;89.90;;;;;;4411574;32;20154;-65
2021/01/05 10:21:15;;;;;;;21.43;12.17;;;4.00;90.00;;;;;;4416562;32;20139;-64
2021/01/05 10:23:54;;;;;;;18.47;12.07;;;4.00;90.10;;;;;;4410670;32;20238;-65
2021/01/05 10:27:07;;;;;;;19.27;12.17;;;4.10;90.20;;;;;;4405028;32;20156;-65
2021/01/05 10:30:14;;;;;;;17.47;10.50;;;4.10;89.80;;;;;;4410322;32;20142;-65
2021/01/05 10:32:45;;;;;;;18.10;10.20;;;4.10;89.00;;;;;;4411297;32;20181;-65
2021/01/05 10:35:27;;;;;;;14.47;9.77;;;4.20;89.20;;;;;;4415780;32;20150;-65
2021/01/05 10:38:06;;;;;;;15.93;9.87;;;4.20;89.00;;;;;;4412434;32;20277;-65
2021/01/05 10:41:01;;;;;;;15.77;9.47;;;4.20;89.40;;;;;;4410452;32;20181;-64
2021/01/05 10:43:56;;;;;;;15.30;9.97;;;4.20;89.40;;;;;;4409422;32;20141;-65
2021/01/05 10:46:46;;;;;;;17.87;10.73;;;4.20;89.00;;;;;;4411054;32;20504;-65
2021/01/05 10:49:29;;;;;;;15.10;9.67;;;4.20;88.90;;;;;;4413986;32;20198;-65
2021/01/05 10:52:22;;;;;;;15.83;9.77;;;4.30;88.70;;;;;;4416613;32;20672;-65
2021/01/05 10:55:02;;;;;;;14.33;8.70;;;4.40;87.80;;;;;;4406858;32;20165;-65
2021/01/05 10:58:05;;;;;;;12.13;8.23;;;4.40;87.60;;;;;;4418918;32;20166;-65
2021/01/05 11:00:43;;;;;;;12.60;8.13;;;4.40;87.60;;;;;;4367765;32;20170;-65
2021/01/05 11:03:24;;;;;;;14.70;8.77;;;4.50;87.50;;;;;;4368321;32;20636;-65
2021/01/05 11:08:44;;;;;;;13.73;9.13;;;4.60;86.60;;;;;;4368342;32;20318;-65
2021/01/05 11:11:17;;;;;;;13.93;8.50;;;4.60;86.50;;;;;;4368428;32;20661;-67
2021/01/05 11:13:48;;;;;;;13.37;8.47;;;4.60;86.30;;;;;;4367862;32;20191;-65
2021/01/05 11:16:31;;;;;;;15.70;8.80;;;4.50;86.40;;;;;;4362111;32;20226;-69
2021/01/05 11:19:00;;;;;;;15.27;9.37;;;4.40;87.00;;;;;;4383977;32;20173;-66
2021/01/05 11:21:34;;;;;;;14.93;9.77;;;4.40;86.80;;;;;;4387967;32;20234;-65
2021/01/05 11:24:11;;;;;;;14.43;8.83;;;4.50;87.30;;;;;;4385686;32;20176;-65
2021/01/05 11:26:50;;;;;;;13.17;8.13;;;4.40;87.70;;;;;;4386647;32;20285;-67
2021/01/05 11:29:34;;;;;;;;;;;;;;;;;;;;;
2021/01/05 11:32:12;;;;;;;12.53;7.70;;;4.40;88.30;;;;;;4389948;32;20292;-65
2021/01/05 11:37:48;;;;;;;11.67;7.27;;;4.20;89.70;;;;;;4395566;32;20201;-65
2021/01/05 11:40:21;;;;;;;11.53;7.33;;;4.30;90.00;;;;;;4414064;32;20613;-66
2021/01/05 11:42:58;;;;;;;12.57;7.83;;;4.30;89.80;;;;;;4419546;32;20179;-65
2021/01/05 11:45:36;;;;;;;15.17;7.17;;;4.20;89.90;;;;;;4417655;32;20202;-65
2021/01/05 11:48:11;;;;;;;12.30;7.50;;;4.20;90.00;;;;;;4414461;32;20171;-65
2021/01/05 11:50:51;;;;;;;13.30;7.23;;;4.20;90.10;;;;;;4419142;32;20165;-64
2021/01/05 11:53:25;;;;;;;9.23;6.17;;;4.20;90.00;;;;;;4417751;32;20635;-66
2021/01/05 11:55:55;;;;;;;10.70;6.83;;;4.20;90.00;;;;;;4417398;32;20356;-67
2021/01/05 11:58:29;;;;;;;12.60;7.60;;;4.20;90.10;;;;;;4415236;32;20139;-67
2021/01/05 12:01:03;;;;;;;9.60;6.60;;;4.20;90.00;;;;;;4412284;32;20483;-66
2021/01/05 12:03:32;;;;;;;13.67;7.57;;;4.10;90.00;;;;;;4418912;32;20297;-65
2021/01/05 12:05:58;;;;;;;10.87;6.97;;;4.00;90.20;;;;;;4417792;32;20190;-65
2021/01/05 12:08:30;;;;;;;12.73;7.57;;;4.00;90.40;;;;;;4406772;32;20209;-66
2021/01/05 12:11:04;;;;;;;13.10;7.97;;;4.00;90.40;;;;;;4406805;32;20167;-65
2021/01/05 12:13:39;;;;;;;14.07;8.23;;;4.10;90.40;;;;;;4413965;32;20186;-65
2021/01/05 12:16:06;;;;;;;12.97;8.00;;;4.10;90.10;;;;;;4413012;32;20249;-67
2021/01/05 12:22:05;;;;;;;13.97;8.30;;;4.10;90.20;;;;;;4355311;32;20188;-64
2021/01/05 12:24:37;;;;;;;14.37;8.67;;;4.10;90.30;;;;;;4372019;32;20174;-65
2021/01/05 12:27:14;;;;;;;16.10;9.00;;;4.20;90.30;;;;;;4364845;32;20158;-65
2021/01/05 12:29:46;;;;;;;13.17;8.77;;;4.20;90.20;;;;;;4371020;32;20585;-65
2021/01/05 12:32:20;;;;;;;14.60;8.70;;;4.10;90.20;;;;;;4373381;32;20164;-65
2021/01/05 12:34:50;;;;;;;15.23;8.77;;;4.20;90.30;;;;;;4372627;32;20285;-66
2021/01/05 12:37:20;;;;;;;14.00;8.93;;;4.20;90.00;;;;;;4369344;32;20275;-64
2021/01/05 12:39:53;;;;;;;15.63;9.67;;;4.20;90.10;;;;;;4369506;32;20205;-67
2021/01/05 12:42:26;;;;;;;17.47;9.13;;;4.20;90.00;;;;;;4372491;32;20179;-66
2021/01/05 12:44:55;;;;;;;15.97;9.17;;;4.20;90.10;;;;;;4372169;32;20232;-65
2021/01/05 12:47:29;;;;;;;14.00;8.47;;;4.20;90.00;;;;;;4359622;32;20218;-65
2021/01/05 12:50:03;;;;;;;17.40;9.60;;;4.20;90.00;;;;;;4371276;32;20152;-65
2021/01/05 12:52:35;;;;;;;15.33;9.97;;;4.20;89.90;;;;;;4390266;32;20481;-64
2021/01/05 12:55:11;;;;;;;15.20;9.17;;;4.20;90.10;;;;;;4417561;32;20153;-65
2021/01/05 13:00:34;;;;;;;15.13;9.77;;;4.20;89.30;;;;;;4415211;32;20258;-67
2021/01/05 13:03:19;;;;;;;14.17;9.60;;;4.20;89.30;;;;;;4416666;32;20219;-66
2021/01/05 13:05:56;;;;;;;16.80;9.93;;;4.30;89.40;;;;;;4416169;32;20501;-64
2021/01/05 13:08:38;;;;;;;17.00;10.10;;;4.30;89.70;;;;;;4415222;32;20217;-66
2021/01/05 13:11:23;;;;;;;17.93;10.53;;;4.40;89.00;;;;;;4418789;32;20303;-65
2021/01/05 13:14:04;;;;;;;18.57;10.87;;;4.50;88.50;;;;;;4414410;32;20556;-66
2021/01/05 13:16:36;;;;;;;15.83;9.70;;;4.40;87.90;;;;;;4415425;32;20195;-65
2021/01/05 13:19:19;;;;;;;17.30;10.77;;;4.40;88.00;;;;;;4411682;32;20572;-67
2021/01/05 13:21:59;;;;;;;19.20;10.13;;;4.30;88.70;;;;;;4416400;32;20256;-66
2021/01/05 13:24:31;;;;;;;16.90;10.57;;;4.20;88.60;;;;;;4419146;32;20160;-65
2021/01/05 13:27:14;;;;;;;17.03;9.97;;;4.20;88.50;;;;;;4412612;32;20215;-66
2021/01/05 13:30:17;;;;;;;;;;;;;;;;;;;;;
2021/01/05 13:33:10;;;;;;;15.63;10.23;;;4.20;88.90;;;;;;4411377;32;20147;-67
2021/01/05 13:35:57;;;;;;;15.53;9.80;;;4.20;89.60;;;;;;4416030;32;20161;-65
2021/01/05 13:38:32;;;;;;;18.33;9.97;;;4.30;89.10;;;;;;4417759;32;20162;-65
2021/01/05 13:41:08;;;;;;;15.30;9.73;;;4.30;88.60;;;;;;4416775;32;20165;-66
2021/01/05 13:43:58;;;;;;;15.60;10.10;;;4.20;88.40;;;;;;4416871;32;20266;-65
2021/01/05 13:46:36;;;;;;;14.93;9.70;;;4.30;88.40;;;;;;4412142;32;20194;-66
2021/01/05 13:51:58;;;;;;;14.30;9.93;;;4.20;88.90;;;;;;4415240;32;20534;-66
2021/01/05 13:54:32;;;;;;;16.00;9.97;;;4.10;89.10;;;;;;4412589;32;20262;-66
2021/01/05 13:57:20;;;;;;;16.23;9.90;;;4.10;89.50;;;;;;4416227;32;20548;-65
2021/01/05 14:00:01;;;;;;;18.07;10.47;;;4.10;89.60;;;;;;4415648;32;20156;-65
2021/01/05 14:05:23;;;;;;;16.10;10.43;;;4.20;88.60;;;;;;4352451;33;20268;-67
2021/01/05 14:07:49;;;;;;;14.37;9.33;;;4.20;88.80;;;;;;4356498;33;20679;-66
2021/01/05 14:10:16;;;;;;;17.13;10.40;;;4.20;88.20;;;;;;4353696;32;20165;-64
2021/01/05 14:12:45;;;;;;;16.97;10.10;;;4.20;88.20;;;;;;4356158;33;20161;-65
2021/01/05 14:15:21;;;;;;;17.17;10.60;;;4.10;88.50;;;;;;4349028;33;20179;-65
2021/01/05 14:17:55;;;;;;;16.40;10.10;;;4.10;88.80;;;;;;4351491;32;20149;-64
2021/01/05 14:20:24;;;;;;;15.50;8.90;;;4.10;89.00;;;;;;4355273;32;20248;-65
2021/01/05 14:22:51;;;;;;;15.83;9.33;;;4.10;89.40;;;;;;4359103;33;20153;-64